Brigus, Canada
Current Conditions -  °F | °C
As of 10:00 PM on Saturday 20 Dec 2014 (Local Time) from CYYT Reporting Station
Overcast Overcast  
Wind Chill: 19°   Ceiling: 2600
Heat Index: 30°   Visibility: 15mi
Dew Point: 25°   Wind: 16mph
Humidity: 80%   Direction: 40°NE
Pressure: 30.18"   Gusts: 26mph
Location:  47.52°N, 53.22°W
Report Text: CYYT 210100Z 04014G23KT 15SM OVC026 M01/M04 A3018 RMK SC8 SLP228
Loading
Personal Weather Stations






























Interactive Weather Map New forecast layout! Learn more

10-Day Weather Forecast

Advertisements
Track Severe Weather on mobile